createdAt,value
2023-02-09T08:52:15.730Z,49.28
2023-02-09T08:54:45.205Z,48.13
2023-02-09T08:57:11.947Z,44.83
2023-02-09T08:59:38.763Z,54.92
2023-02-09T09:02:05.748Z,54.42
2023-02-09T09:04:32.689Z,52.50
2023-02-09T09:06:59.432Z,52.78
2023-02-09T09:09:26.401Z,52.72
2023-02-09T09:11:53.264Z,43.28
2023-02-09T09:14:19.992Z,51.05
2023-02-09T09:16:46.708Z,56.75
2023-02-09T09:19:13.504Z,43.95
2023-02-09T09:21:40.163Z,48.83
2023-02-09T09:24:07.006Z,46.22
2023-02-09T09:26:34.882Z,48.15
2023-02-09T09:29:01.601Z,48.40
2023-02-09T09:31:28.509Z,41.53
2023-02-09T09:33:55.501Z,46.78
2023-02-09T09:36:22.266Z,40.35
2023-02-09T09:38:49.109Z,49.30
2023-02-09T09:41:29.829Z,40.28
2023-02-09T09:43:57.452Z,41.03
2023-02-09T09:46:38.776Z,42.45
2023-02-09T09:49:06.409Z,38.67
2023-02-09T09:51:48.145Z,38.90
2023-02-09T09:54:21.922Z,43.58
2023-02-09T09:56:50.537Z,44.35
2023-02-09T09:59:22.131Z,47.30
2023-02-09T10:01:51.313Z,45.65
2023-02-09T10:04:19.566Z,44.28
2023-02-09T10:06:49.647Z,44.05
2023-02-09T10:09:28.350Z,41.35
2023-02-09T10:12:35.764Z,42.88
2023-02-09T10:15:27.923Z,38.92
2023-02-09T10:17:56.743Z,44.42
2023-02-09T10:20:49.375Z,38.33
2023-02-09T10:23:21.014Z,40.20
2023-02-09T10:26:07.447Z,33.33
2023-02-09T10:28:41.218Z,48.60
2023-02-09T10:31:24.490Z,38.50
2023-02-09T10:33:59.041Z,49.65
2023-02-09T10:36:32.202Z,39.55
2023-02-09T10:39:15.615Z,43.67
2023-02-09T10:41:44.849Z,41.75
2023-02-09T10:44:28.315Z,42.50
2023-02-09T10:47:27.114Z,42.08
2023-02-09T10:50:13.623Z,33.92
2023-02-09T10:55:37.012Z,37.83
2023-02-09T10:58:27.435Z,31.70
2023-02-09T11:01:08.990Z,37.53
2023-02-09T11:03:37.692Z,37.90
2023-02-09T11:06:13.816Z,33.20
2023-02-09T11:08:56.369Z,34.00
2023-02-09T11:11:35.292Z,34.08
2023-02-09T11:14:03.453Z,28.95
2023-02-09T11:16:52.032Z,34.67
2023-02-09T11:19:22.662Z,32.60
2023-02-09T11:21:59.810Z,30.08
2023-02-09T11:24:54.001Z,31.52
2023-02-09T11:27:42.049Z,35.28
2023-02-09T11:30:45.830Z,36.47
2023-02-09T11:33:46.981Z,31.38
2023-02-09T11:36:52.455Z,32.47
2023-02-09T11:39:30.914Z,30.20
2023-02-09T11:42:26.193Z,27.55
2023-02-09T11:44:58.730Z,24.88
2023-02-09T11:48:09.020Z,29.73
2023-02-09T11:51:00.440Z,26.63
2023-02-09T11:53:30.173Z,24.17
2023-02-09T11:56:00.819Z,26.20
2023-02-09T11:58:48.172Z,28.27
2023-02-09T12:01:42.538Z,24.33
2023-02-09T12:04:22.694Z,23.52
2023-02-09T12:06:53.403Z,28.17
2023-02-09T12:09:51.383Z,25.38
2023-02-09T12:12:44.160Z,27.25
2023-02-09T12:15:16.442Z,27.23
2023-02-09T12:17:54.827Z,32.00
2023-02-09T12:20:36.704Z,29.52
2023-02-09T12:23:16.612Z,27.70
2023-02-09T12:26:01.473Z,29.38
2023-02-09T12:28:28.277Z,30.00
2023-02-09T12:30:57.742Z,25.75
2023-02-09T12:33:24.543Z,27.80
2023-02-09T12:36:27.780Z,28.10
2023-02-09T12:39:04.033Z,32.80
2023-02-09T12:41:34.905Z,28.48
2023-02-09T12:44:06.176Z,30.65
2023-02-09T12:46:32.845Z,26.30
2023-02-09T12:49:11.852Z,26.83
2023-02-09T12:51:54.286Z,29.02
2023-02-09T12:54:44.763Z,24.20
2023-02-09T12:57:17.858Z,24.50
2023-02-09T12:59:50.786Z,22.95
2023-02-09T13:02:38.787Z,26.23
2023-02-09T13:05:25.414Z,23.48
2023-02-09T13:10:22.124Z,25.77
2023-02-09T13:13:21.676Z,25.60
2023-02-09T13:16:23.715Z,30.15
2023-02-09T13:19:08.958Z,25.35
2023-02-09T13:21:48.551Z,25.10
2023-02-09T13:24:18.253Z,29.30
2023-02-09T13:26:52.392Z,29.27
2023-02-09T13:29:22.247Z,25.58
2023-02-09T13:32:04.080Z,26.35
2023-02-09T13:34:37.796Z,32.65
2023-02-09T13:37:22.893Z,32.50
2023-02-09T13:40:00.942Z,32.38
2023-02-09T13:42:31.541Z,26.95
2023-02-09T13:44:59.658Z,29.70
2023-02-09T13:47:28.232Z,35.08
2023-02-09T13:49:57.408Z,29.60
2023-02-09T13:52:26.757Z,28.67
2023-02-09T13:54:54.469Z,31.45
2023-02-09T13:57:29.898Z,28.77
2023-02-09T14:00:12.581Z,28.15
2023-02-09T14:02:39.874Z,30.33
2023-02-09T14:05:08.327Z,26.33
2023-02-09T14:07:37.445Z,38.00
2023-02-09T14:10:14.832Z,34.10
2023-02-09T14:12:51.175Z,39.55
2023-02-09T14:16:04.172Z,44.00
2023-02-09T14:18:32.552Z,42.35
2023-02-09T14:21:10.389Z,43.60
2023-02-09T14:23:38.505Z,54.25
2023-02-09T14:26:30.141Z,48.85
2023-02-09T14:29:05.650Z,45.58
2023-02-09T14:31:35.374Z,44.28
2023-02-09T14:34:02.420Z,48.83
2023-02-09T14:36:34.707Z,43.10
2023-02-09T14:39:20.036Z,37.58
2023-02-09T14:41:56.896Z,39.65
2023-02-09T14:44:24.386Z,45.55
2023-02-09T14:46:51.136Z,40.28
2023-02-09T14:49:19.025Z,36.05
2023-02-09T14:51:46.993Z,39.20
2023-02-09T14:54:25.806Z,36.75
2023-02-09T14:56:54.270Z,38.40
2023-02-09T14:59:22.601Z,34.03
2023-02-09T15:01:52.118Z,42.85
2023-02-09T15:04:19.478Z,43.58
2023-02-09T15:06:50.005Z,43.00
2023-02-09T15:09:24.786Z,39.92
2023-02-09T15:12:07.278Z,36.47
2023-02-09T15:14:40.005Z,42.00
2023-02-09T15:17:18.525Z,36.92
2023-02-09T15:19:46.489Z,38.70
2023-02-09T15:22:16.150Z,33.72
2023-02-09T15:24:47.418Z,34.38
2023-02-09T15:27:53.978Z,36.05
2023-02-09T15:30:25.412Z,35.03
2023-02-09T15:32:52.953Z,37.30
2023-02-09T15:35:23.014Z,39.20
2023-02-09T15:37:53.327Z,37.00
2023-02-09T15:40:41.971Z,37.90
2023-02-09T15:43:36.430Z,39.90
2023-02-09T15:46:22.937Z,33.80
2023-02-09T15:51:16.972Z,36.10
2023-02-09T15:53:44.822Z,33.90
2023-02-09T15:56:13.246Z,36.42
2023-02-09T15:58:44.950Z,31.95
2023-02-09T16:01:14.314Z,37.47
2023-02-09T16:03:41.119Z,34.20
2023-02-09T16:06:18.382Z,36.22
2023-02-09T16:08:46.492Z,33.38
2023-02-09T16:11:27.392Z,40.88
2023-02-09T16:13:55.091Z,33.33
2023-02-09T16:16:24.687Z,32.47
2023-02-09T16:18:51.715Z,37.20
2023-02-09T16:21:29.150Z,33.92
2023-02-09T16:23:58.761Z,35.17
2023-02-09T16:26:28.375Z,31.27
2023-02-09T16:28:55.741Z,36.42
2023-02-09T16:31:23.455Z,40.63
2023-02-09T16:33:51.421Z,36.55
2023-02-09T16:36:20.634Z,32.30
2023-02-09T16:38:47.885Z,30.83
2023-02-09T16:41:35.497Z,34.40
2023-02-09T16:44:12.461Z,36.80
2023-02-09T16:46:39.330Z,35.55
2023-02-09T16:49:06.104Z,36.65
2023-02-09T16:51:34.417Z,38.70
2023-02-09T16:54:01.213Z,34.50
2023-02-09T16:56:30.787Z,32.90
2023-02-09T16:58:57.514Z,32.83
2023-02-09T17:01:24.437Z,31.70
2023-02-09T17:03:54.500Z,28.98
2023-02-09T17:06:24.429Z,30.60
2023-02-09T17:08:51.464Z,30.58
2023-02-09T17:11:21.100Z,32.92
2023-02-09T17:13:48.222Z,30.15
2023-02-09T17:16:33.323Z,30.98
2023-02-09T17:19:02.159Z,33.88
2023-02-09T17:21:35.319Z,33.15
2023-02-09T17:24:04.208Z,29.20
2023-02-09T17:26:31.232Z,33.72
2023-02-09T17:28:58.051Z,30.75
2023-02-09T17:31:27.701Z,34.55
2023-02-09T17:33:57.373Z,33.17
2023-02-09T17:36:27.668Z,31.27
2023-02-09T17:38:59.141Z,32.13
2023-02-09T17:41:31.854Z,35.22
2023-02-09T17:44:20.791Z,38.28
2023-02-09T17:46:54.293Z,37.33
2023-02-09T17:49:21.082Z,38.92
2023-02-09T17:51:48.764Z,40.78
2023-02-09T17:54:17.703Z,45.63
2023-02-09T17:56:45.316Z,47.45
2023-02-09T17:59:13.423Z,44.83
2023-02-09T18:01:43.155Z,43.13
2023-02-09T18:04:17.098Z,44.58
2023-02-09T18:06:43.886Z,44.72
2023-02-09T18:09:12.524Z,44.97
2023-02-09T18:11:45.123Z,36.63
2023-02-09T18:14:16.638Z,43.78
2023-02-09T18:16:44.292Z,36.80
2023-02-09T18:19:11.854Z,41.60
2023-02-09T18:21:39.881Z,44.38
2023-02-09T18:24:07.724Z,38.08
2023-02-09T18:26:34.517Z,46.35
2023-02-09T18:29:01.315Z,40.58
2023-02-09T18:31:28.108Z,40.17
2023-02-09T18:33:54.964Z,39.20
2023-02-09T18:36:21.813Z,41.80
2023-02-09T18:38:49.147Z,34.55
2023-02-09T18:41:15.946Z,39.33
2023-02-09T18:43:42.859Z,37.00
2023-02-09T18:46:13.739Z,38.75
2023-02-09T18:48:40.603Z,37.13
2023-02-09T18:51:08.688Z,30.65
2023-02-09T18:53:37.435Z,35.53
2023-02-09T18:56:04.592Z,38.03
2023-02-09T18:58:31.923Z,42.05
2023-02-09T19:00:58.792Z,36.35
2023-02-09T19:03:25.614Z,31.27
2023-02-09T19:05:52.445Z,36.50
2023-02-09T19:08:19.220Z,32.13
2023-02-09T19:10:46.145Z,31.77
2023-02-09T19:13:13.058Z,28.35
2023-02-09T19:15:40.242Z,29.30
2023-02-09T19:18:07.230Z,29.80
2023-02-09T19:20:34.641Z,31.25
2023-02-09T19:23:02.493Z,33.85
2023-02-09T19:25:30.329Z,31.17
2023-02-09T19:27:57.532Z,31.98
2023-02-09T19:30:25.170Z,34.15
2023-02-09T19:32:57.802Z,35.78
2023-02-09T19:35:25.026Z,33.85
2023-02-09T19:37:53.477Z,36.80
2023-02-09T19:40:28.033Z,33.35
2023-02-09T19:42:56.064Z,37.75
2023-02-09T19:45:24.118Z,33.17
2023-02-09T19:47:51.203Z,30.63
2023-02-09T19:50:18.335Z,32.28
2023-02-09T19:52:47.629Z,30.58
2023-02-09T19:55:14.818Z,34.92
2023-02-09T19:57:42.670Z,32.28
2023-02-09T20:00:14.662Z,29.48
2023-02-09T20:02:41.774Z,31.42
2023-02-09T20:05:09.167Z,28.33
2023-02-09T20:07:36.033Z,27.20
2023-02-09T20:10:03.090Z,40.35
2023-02-09T20:12:30.012Z,31.48
2023-02-09T20:14:56.891Z,34.35
2023-02-09T20:17:23.829Z,39.03
2023-02-09T20:19:50.737Z,35.20
2023-02-09T20:22:18.005Z,35.90
2023-02-09T20:24:44.945Z,41.38
2023-02-09T20:27:12.033Z,40.40
2023-02-09T20:29:39.141Z,36.60
2023-02-09T20:32:06.464Z,40.28
2023-02-09T20:34:33.285Z,38.00
2023-02-09T20:37:00.264Z,40.28
2023-02-09T20:39:27.111Z,42.88
2023-02-09T20:42:17.113Z,49.63
2023-02-09T20:45:02.836Z,40.65
2023-02-09T20:47:32.548Z,41.42
2023-02-09T20:50:00.330Z,37.75
2023-02-09T20:52:28.919Z,39.53
2023-02-09T20:54:56.116Z,42.80
2023-02-09T20:57:29.315Z,40.13
2023-02-09T20:59:57.649Z,35.13
2023-02-09T21:02:25.250Z,31.08
2023-02-09T21:04:55.077Z,38.50
2023-02-09T21:07:21.858Z,33.55
2023-02-09T21:09:48.711Z,33.92
2023-02-09T21:12:15.559Z,31.50
2023-02-09T21:14:45.151Z,32.30
2023-02-09T21:17:13.141Z,28.58
2023-02-09T21:19:40.284Z,35.72
2023-02-09T21:22:07.127Z,30.70
2023-02-09T21:24:33.975Z,31.92
2023-02-09T21:27:00.829Z,31.10
2023-02-09T21:29:31.470Z,31.75
2023-02-09T21:32:01.729Z,35.58
2023-02-09T21:34:28.832Z,33.92
2023-02-09T21:36:55.608Z,37.65
2023-02-09T21:39:22.325Z,33.35
2023-02-09T21:42:07.706Z,31.75
2023-02-09T21:44:37.525Z,34.10
2023-02-09T21:47:04.565Z,35.53
2023-02-09T21:49:31.928Z,31.13
2023-02-09T21:51:59.390Z,31.60
2023-02-09T21:54:28.978Z,35.05
2023-02-09T21:56:55.821Z,32.28
2023-02-09T21:59:22.654Z,31.27
2023-02-09T22:01:49.461Z,30.95
2023-02-09T22:04:16.232Z,30.70
2023-02-09T22:06:43.220Z,34.33
2023-02-09T22:09:10.046Z,33.55
2023-02-09T22:11:36.811Z,33.72
2023-02-09T22:14:04.251Z,36.22
2023-02-09T22:16:31.190Z,34.50
2023-02-09T22:18:59.747Z,30.33
2023-02-09T22:21:26.659Z,34.08
2023-02-09T22:23:53.674Z,31.40
2023-02-09T22:26:21.899Z,29.63
2023-02-09T22:28:48.812Z,30.40
2023-02-09T22:31:20.782Z,29.88
2023-02-09T22:33:48.534Z,32.97
2023-02-09T22:36:18.004Z,32.95
2023-02-09T22:38:45.250Z,31.13
2023-02-09T22:41:21.614Z,31.25
2023-02-09T22:43:59.700Z,36.70
2023-02-09T22:46:31.970Z,36.00
2023-02-09T22:49:01.139Z,31.88
2023-02-09T22:51:30.352Z,35.38
2023-02-09T22:53:58.180Z,39.17
2023-02-09T22:56:25.978Z,32.53
2023-02-09T22:58:53.860Z,37.08
2023-02-09T23:01:23.556Z,36.70
2023-02-09T23:03:50.626Z,32.70
2023-02-09T23:06:20.720Z,35.70
2023-02-09T23:08:47.675Z,30.55
2023-02-09T23:11:16.986Z,33.72
2023-02-09T23:13:44.125Z,32.30
2023-02-09T23:16:19.845Z,32.13
2023-02-09T23:18:58.917Z,31.23
2023-02-09T23:21:31.668Z,29.23
2023-02-09T23:23:58.882Z,32.05
2023-02-09T23:26:26.597Z,31.45
2023-02-09T23:28:59.423Z,32.50
2023-02-09T23:31:27.163Z,28.17
2023-02-09T23:33:54.200Z,29.65
2023-02-09T23:36:26.146Z,32.70
2023-02-09T23:39:00.913Z,31.10
2023-02-09T23:41:28.297Z,31.48
2023-02-09T23:43:55.986Z,30.75
2023-02-09T23:46:26.727Z,30.60
2023-02-09T23:48:55.697Z,29.80
2023-02-09T23:51:28.552Z,33.60
2023-02-09T23:53:57.115Z,30.48
2023-02-09T23:56:24.248Z,33.40
2023-02-09T23:58:52.625Z,28.90
